Time;durP1;ratioP1;P1;durP2;ratioP2;P2;SDS_P1;SDS_P2;PMS_P1;PMS_P2;Temp;Humidity;BMP_temperature;BMP_pressure;BME280_temperature;BME280_humidity;BME280_pressure;Samples;Min_cycle;Max_cycle;Signal;HPM_P1;HPM_P2
2023/05/20 00:01:53;;;;;;;18.10;10.52;;;;;;;;;;5004513;28;20026;-70
2023/05/20 00:04:18;;;;;;;18.43;10.40;;;;;;;;;;5009798;28;20022;-71
2023/05/20 00:06:44;;;;;;;18.33;10.75;;;;;;;;;;5006340;28;20098;-71
2023/05/20 00:09:09;;;;;;;17.15;10.40;;;;;;;;;;5003192;28;20631;-72
2023/05/20 00:11:34;;;;;;;17.30;10.43;;;;;;;;;;4998051;28;20014;-71
2023/05/20 00:14:00;;;;;;;19.33;11.30;;;;;;;;;;5004811;28;20512;-71
2023/05/20 00:16:25;;;;;;;17.47;10.60;;;;;;;;;;5006876;28;20029;-71
2023/05/20 00:18:50;;;;;;;18.67;10.70;;;;;;;;;;5005101;28;20021;-72
2023/05/20 00:21:15;;;;;;;20.00;9.85;;;;;;;;;;5003559;28;20477;-71
2023/05/20 00:23:40;;;;;;;17.87;10.63;;;;;;;;;;5004119;28;20069;-71
2023/05/20 00:26:05;;;;;;;18.58;11.05;;;;;;;;;;5001172;28;20124;-71
2023/05/20 00:28:30;;;;;;;18.67;10.73;;;;;;;;;;5003922;28;20393;-71
2023/05/20 00:30:56;;;;;;;18.25;10.85;;;;;;;;;;5008184;28;20492;-71
2023/05/20 00:33:21;;;;;;;21.67;11.38;;;;;;;;;;5003289;28;20486;-71
2023/05/20 00:35:46;;;;;;;17.83;9.90;;;;;;;;;;5003325;28;20096;-71
2023/05/20 00:38:11;;;;;;;20.30;11.77;;;;;;;;;;5007876;28;20064;-71
2023/05/20 00:40:36;;;;;;;19.63;11.67;;;;;;;;;;5008069;28;20510;-71
2023/05/20 00:43:01;;;;;;;18.17;10.90;;;;;;;;;;5008294;28;20038;-70
2023/05/20 00:45:27;;;;;;;18.88;11.65;;;;;;;;;;5001976;28;20049;-71
2023/05/20 00:47:52;;;;;;;16.98;11.15;;;;;;;;;;5005688;28;20030;-70
2023/05/20 00:50:17;;;;;;;17.02;9.75;;;;;;;;;;5004882;28;20108;-70
2023/05/20 00:52:44;;;;;;;20.03;11.60;;;;;;;;;;5008533;28;20030;-70
2023/05/20 00:55:09;;;;;;;;;;;;;;;;;;5007145;28;20021;-70
2023/05/20 00:57:34;;;;;;;16.65;9.77;;;;;;;;;;5007893;28;20048;-70
2023/05/20 00:59:59;;;;;;;19.15;10.85;;;;;;;;;;5008711;28;20018;-70
2023/05/20 01:02:24;;;;;;;17.97;10.23;;;;;;;;;;5008121;28;20033;-70
2023/05/20 01:04:50;;;;;;;20.92;11.88;;;;;;;;;;4998161;28;20018;-70
2023/05/20 01:07:16;;;;;;;17.33;10.52;;;;;;;;;;5009307;28;20022;-70
2023/05/20 01:09:41;;;;;;;16.15;9.77;;;;;;;;;;5002192;28;20021;-70
2023/05/20 01:12:16;;;;;;;17.08;9.88;;;;;;;;;;5007493;28;20029;-71
2023/05/20 01:14:47;;;;;;;18.23;10.43;;;;;;;;;;5011498;28;20516;-71
2023/05/20 01:17:16;;;;;;;18.52;10.52;;;;;;;;;;5002941;28;20018;-70
2023/05/20 01:19:45;;;;;;;19.88;10.32;;;;;;;;;;5009447;28;20080;-70
2023/05/20 01:22:11;;;;;;;17.55;10.57;;;;;;;;;;5008506;28;20105;-70
2023/05/20 01:24:38;;;;;;;18.85;10.90;;;;;;;;;;5008013;28;20104;-70
2023/05/20 01:27:04;;;;;;;18.73;10.85;;;;;;;;;;5007788;28;20506;-72
2023/05/20 01:29:31;;;;;;;19.13;10.90;;;;;;;;;;5006398;28;20064;-70
2023/05/20 01:31:57;;;;;;;18.30;10.18;;;;;;;;;;5013049;28;20026;-70
2023/05/20 01:34:24;;;;;;;17.30;10.32;;;;;;;;;;5011220;28;20034;-70
2023/05/20 01:36:49;;;;;;;;;;;;;;;;;;5011038;28;20044;-70
2023/05/20 01:39:14;;;;;;;18.83;9.57;;;;;;;;;;5009562;28;20365;-70
2023/05/20 01:41:40;;;;;;;15.32;8.63;;;;;;;;;;5004852;28;20022;-70
2023/05/20 01:44:05;;;;;;;16.15;9.23;;;;;;;;;;5011004;28;20547;-70
2023/05/20 01:46:33;;;;;;;15.95;9.70;;;;;;;;;;5009461;28;20101;-70
2023/05/20 01:48:58;;;;;;;16.92;9.75;;;;;;;;;;5011446;28;20026;-70
2023/05/20 01:51:24;;;;;;;17.97;10.10;;;;;;;;;;5003610;28;20616;-70
2023/05/20 01:53:49;;;;;;;22.15;12.07;;;;;;;;;;5003395;28;20441;-70
2023/05/20 01:56:14;;;;;;;18.45;11.48;;;;;;;;;;5009122;28;20014;-69
2023/05/20 01:58:39;;;;;;;22.10;11.38;;;;;;;;;;5005030;28;20038;-69
2023/05/20 02:01:04;;;;;;;20.30;11.80;;;;;;;;;;5012447;28;20397;-69
2023/05/20 02:03:30;;;;;;;18.02;10.70;;;;;;;;;;5010914;28;20508;-70
2023/05/20 02:05:55;;;;;;;18.52;10.75;;;;;;;;;;5005925;28;20022;-70
2023/05/20 02:08:20;;;;;;;19.95;11.48;;;;;;;;;;5003729;28;20062;-72
2023/05/20 02:10:46;;;;;;;19.83;11.57;;;;;;;;;;5006591;28;20026;-70
2023/05/20 02:13:11;;;;;;;;;;;;;;;;;;5007273;28;20034;-72
2023/05/20 02:15:40;;;;;;;18.60;10.60;;;;;;;;;;5003895;28;19931;-72
2023/05/20 02:18:05;;;;;;;18.85;11.63;;;;;;;;;;5006520;28;20477;-72
2023/05/20 02:20:30;;;;;;;19.17;11.10;;;;;;;;;;5010257;28;20029;-71
2023/05/20 02:22:55;;;;;;;19.33;11.50;;;;;;;;;;5010905;28;20026;-72
2023/05/20 02:25:20;;;;;;;18.88;10.85;;;;;;;;;;5011076;28;20042;-72
2023/05/20 02:27:45;;;;;;;19.80;11.73;;;;;;;;;;5010139;28;20022;-71
2023/05/20 02:30:11;;;;;;;17.05;10.73;;;;;;;;;;5009851;28;20105;-71
2023/05/20 02:32:36;;;;;;;19.37;11.60;;;;;;;;;;4999451;28;20022;-70
2023/05/20 02:35:02;;;;;;;21.10;11.88;;;;;;;;;;4997444;28;20097;-70
2023/05/20 02:37:27;;;;;;;19.60;12.27;;;;;;;;;;5007695;28;20080;-71
2023/05/20 02:39:52;;;;;;;21.20;12.40;;;;;;;;;;5006727;28;20030;-70
2023/05/20 02:42:18;;;;;;;21.95;13.18;;;;;;;;;;5007167;28;20045;-71
2023/05/20 02:44:43;;;;;;;21.40;13.23;;;;;;;;;;5010764;28;20087;-71
2023/05/20 02:47:08;;;;;;;22.83;11.55;;;;;;;;;;5011647;28;20014;-71
2023/05/20 02:49:33;;;;;;;19.20;11.02;;;;;;;;;;5000344;28;20022;-70
2023/05/20 02:51:59;;;;;;;21.50;11.98;;;;;;;;;;5002380;28;20524;-71
2023/05/20 02:54:24;;;;;;;19.53;11.13;;;;;;;;;;5005080;28;20025;-71
2023/05/20 02:56:49;;;;;;;17.92;10.45;;;;;;;;;;5006745;28;20034;-71
2023/05/20 02:59:15;;;;;;;18.98;10.60;;;;;;;;;;5003190;28;20026;-71
2023/05/20 03:01:40;;;;;;;21.25;12.15;;;;;;;;;;5006605;28;20524;-71
2023/05/20 03:04:05;;;;;;;21.40;12.15;;;;;;;;;;4998583;28;20025;-71
2023/05/20 03:06:33;;;;;;;21.40;12.90;;;;;;;;;;5011379;28;20107;-71
2023/05/20 03:08:58;;;;;;;22.65;12.90;;;;;;;;;;5002612;28;20033;-71
2023/05/20 03:11:23;;;;;;;24.47;13.87;;;;;;;;;;5001502;28;20022;-72
2023/05/20 03:13:48;;;;;;;23.07;12.93;;;;;;;;;;5001656;28;20029;-72
2023/05/20 03:16:15;;;;;;;21.83;12.63;;;;;;;;;;4995811;28;20018;-71
2023/05/20 03:18:40;;;;;;;;;;;;;;;;;;5000612;28;20481;-71
2023/05/20 03:21:05;;;;;;;22.30;12.43;;;;;;;;;;5009591;28;19928;-70
2023/05/20 03:23:31;;;;;;;22.53;12.50;;;;;;;;;;5009308;28;20079;-70
2023/05/20 03:25:56;;;;;;;20.67;12.20;;;;;;;;;;5009528;28;20493;-70
2023/05/20 03:28:21;;;;;;;20.80;12.10;;;;;;;;;;5003498;28;20079;-70
2023/05/20 03:30:46;;;;;;;20.38;10.63;;;;;;;;;;4999868;28;20030;-70
2023/05/20 03:33:11;;;;;;;18.50;11.32;;;;;;;;;;5006287;28;20054;-71
2023/05/20 03:35:36;;;;;;;22.13;12.17;;;;;;;;;;5003923;28;20026;-70
2023/05/20 03:38:01;;;;;;;20.73;12.15;;;;;;;;;;5008748;28;20021;-70
2023/05/20 03:40:27;;;;;;;18.00;11.25;;;;;;;;;;5002539;28;20040;-71
2023/05/20 03:42:52;;;;;;;19.70;12.40;;;;;;;;;;4999190;28;20528;-70
2023/05/20 03:45:17;;;;;;;24.30;12.90;;;;;;;;;;5007274;28;20496;-71
2023/05/20 03:47:42;;;;;;;20.40;11.97;;;;;;;;;;5010283;28;20052;-70
2023/05/20 03:50:07;;;;;;;19.55;11.07;;;;;;;;;;5004218;28;20676;-72
2023/05/20 03:52:33;;;;;;;18.40;11.27;;;;;;;;;;5014223;28;20026;-71
2023/05/20 03:54:58;;;;;;;17.52;10.00;;;;;;;;;;5007020;28;20148;-71
2023/05/20 03:57:23;;;;;;;18.35;11.30;;;;;;;;;;5001874;28;20064;-71
2023/05/20 03:59:48;;;;;;;19.67;11.43;;;;;;;;;;5000797;28;20034;-71
2023/05/20 04:02:14;;;;;;;19.58;11.90;;;;;;;;;;5000683;28;20018;-71
2023/05/20 04:04:42;;;;;;;22.05;13.63;;;;;;;;;;5006580;28;20026;-70
2023/05/20 04:07:07;;;;;;;19.17;11.23;;;;;;;;;;5001334;28;20018;-70
2023/05/20 04:09:32;;;;;;;21.85;11.90;;;;;;;;;;4998852;28;20394;-71
2023/05/20 04:11:57;;;;;;;17.75;11.18;;;;;;;;;;5005109;28;20115;-71
2023/05/20 04:14:22;;;;;;;18.83;10.83;;;;;;;;;;5008376;28;20018;-71
2023/05/20 04:16:49;;;;;;;20.10;11.47;;;;;;;;;;5009449;28;20041;-72
2023/05/20 04:19:14;;;;;;;18.63;11.15;;;;;;;;;;5005126;28;20688;-72
2023/05/20 04:21:41;;;;;;;21.52;12.18;;;;;;;;;;5001113;28;20097;-71
2023/05/20 04:24:06;;;;;;;20.90;11.95;;;;;;;;;;5000247;28;20063;-71
2023/05/20 04:26:32;;;;;;;19.60;11.48;;;;;;;;;;5005579;28;20100;-71
2023/05/20 04:28:57;;;;;;;18.88;11.25;;;;;;;;;;5001984;28;20029;-71
2023/05/20 04:31:25;;;;;;;18.33;10.67;;;;;;;;;;4963415;28;1035252;-72
2023/05/20 04:33:50;;;;;;;20.77;12.13;;;;;;;;;;5000606;28;20490;-72
2023/05/20 04:36:16;;;;;;;18.55;11.30;;;;;;;;;;5009139;28;20064;-71
2023/05/20 04:38:43;;;;;;;20.95;12.18;;;;;;;;;;4999940;28;20030;-72
2023/05/20 04:41:08;;;;;;;22.08;12.27;;;;;;;;;;4996741;28;20018;-73
2023/05/20 04:43:33;;;;;;;23.48;13.18;;;;;;;;;;4999754;28;20440;-73
2023/05/20 04:46:00;;;;;;;19.80;11.60;;;;;;;;;;5004470;28;20109;-73
2023/05/20 04:48:25;;;;;;;19.52;11.05;;;;;;;;;;5007404;28;20105;-72
2023/05/20 04:50:53;;;;;;;20.37;12.20;;;;;;;;;;5001612;28;20528;-72
2023/05/20 04:53:20;;;;;;;20.27;12.45;;;;;;;;;;5008083;28;20540;-71
2023/05/20 04:55:45;;;;;;;24.17;13.23;;;;;;;;;;5009072;28;20022;-71
2023/05/20 04:58:16;;;;;;;21.20;12.53;;;;;;;;;;5000012;28;20022;-71
2023/05/20 05:00:42;;;;;;;19.58;11.52;;;;;;;;;;5004356;28;20042;-72
2023/05/20 05:03:07;;;;;;;20.50;12.32;;;;;;;;;;5000566;28;20026;-73
2023/05/20 05:05:36;;;;;;;19.55;11.55;;;;;;;;;;5004994;28;20022;-71
2023/05/20 05:08:02;;;;;;;21.25;12.57;;;;;;;;;;4993999;28;20034;-72
2023/05/20 05:10:28;;;;;;;24.15;13.40;;;;;;;;;;5000836;28;20037;-73
2023/05/20 05:12:53;;;;;;;22.15;12.98;;;;;;;;;;4996690;28;20034;-71
2023/05/20 05:15:18;;;;;;;21.05;12.35;;;;;;;;;;5008028;28;20018;-71
2023/05/20 05:17:43;;;;;;;22.67;12.63;;;;;;;;;;4990848;28;20466;-72
2023/05/20 05:20:09;;;;;;;21.13;11.77;;;;;;;;;;4990268;28;20013;-70
2023/05/20 05:22:35;;;;;;;21.67;13.38;;;;;;;;;;5006963;28;20065;-70
2023/05/20 05:25:01;;;;;;;20.13;12.88;;;;;;;;;;4998381;28;20015;-71
2023/05/20 05:27:26;;;;;;;21.83;12.48;;;;;;;;;;4998985;28;20018;-70
2023/05/20 05:29:51;;;;;;;18.60;11.93;;;;;;;;;;4990300;28;20101;-71
2023/05/20 05:32:16;;;;;;;23.37;13.47;;;;;;;;;;4991584;28;20414;-70
2023/05/20 05:34:41;;;;;;;20.77;12.40;;;;;;;;;;4995522;28;20114;-70
2023/05/20 05:37:07;;;;;;;23.17;13.68;;;;;;;;;;5002769;28;20025;-71
2023/05/20 05:39:33;;;;;;;24.00;14.50;;;;;;;;;;4999467;28;20030;-71
2023/05/20 05:41:58;;;;;;;20.27;12.55;;;;;;;;;;5002958;28;20543;-70
2023/05/20 05:44:23;;;;;;;22.07;12.80;;;;;;;;;;5002651;28;20026;-71
2023/05/20 05:46:48;;;;;;;23.33;14.20;;;;;;;;;;5000680;28;20029;-71
2023/05/20 05:49:13;;;;;;;19.00;12.25;;;;;;;;;;4995527;28;20060;-72
2023/05/20 05:51:39;;;;;;;18.65;11.70;;;;;;;;;;4994813;28;20022;-71
2023/05/20 05:54:04;;;;;;;21.73;13.27;;;;;;;;;;5005906;28;20124;-69
2023/05/20 05:56:29;;;;;;;18.77;11.63;;;;;;;;;;5005090;28;20490;-70
2023/05/20 05:58:54;;;;;;;21.67;12.20;;;;;;;;;;5008463;28;20430;-70
2023/05/20 06:01:20;;;;;;;21.88;12.82;;;;;;;;;;4998191;28;20726;-70
2023/05/20 06:03:45;;;;;;;25.13;14.55;;;;;;;;;;4993097;28;20536;-71
2023/05/20 06:06:10;;;;;;;23.33;14.10;;;;;;;;;;5001367;28;20109;-71
2023/05/20 06:08:35;;;;;;;22.48;13.88;;;;;;;;;;5003991;28;20410;-71
2023/05/20 06:11:01;;;;;;;23.33;13.43;;;;;;;;;;5013553;28;20030;-70
2023/05/20 06:13:26;;;;;;;22.73;12.30;;;;;;;;;;5003235;28;20351;-71
2023/05/20 06:15:52;;;;;;;21.33;12.60;;;;;;;;;;5003456;28;20022;-72
2023/05/20 06:18:17;;;;;;;23.63;14.00;;;;;;;;;;5009793;28;20021;-71
2023/05/20 06:20:42;;;;;;;21.38;13.52;;;;;;;;;;5009363;28;20029;-71
2023/05/20 06:23:07;;;;;;;23.85;13.93;;;;;;;;;;5009806;28;20481;-71
2023/05/20 06:25:32;;;;;;;21.05;13.25;;;;;;;;;;5005584;28;20026;-71
2023/05/20 06:27:58;;;;;;;23.45;14.20;;;;;;;;;;5002310;28;20033;-71
2023/05/20 06:30:23;;;;;;;22.77;13.52;;;;;;;;;;5008466;28;20544;-71
2023/05/20 06:32:48;;;;;;;24.33;14.63;;;;;;;;;;5006449;28;20053;-70
2023/05/20 06:35:13;;;;;;;24.77;14.30;;;;;;;;;;5006873;28;20121;-71
2023/05/20 06:37:38;;;;;;;27.43;15.13;;;;;;;;;;5008180;28;20403;-70
2023/05/20 06:40:04;;;;;;;27.20;15.17;;;;;;;;;;5000756;28;20030;-71
2023/05/20 06:42:29;;;;;;;25.10;14.85;;;;;;;;;;4992992;28;20022;-71
2023/05/20 06:44:54;;;;;;;25.15;14.40;;;;;;;;;;4998662;28;20375;-70
2023/05/20 06:47:20;;;;;;;25.57;15.10;;;;;;;;;;5004338;28;20022;-70
2023/05/20 06:49:45;;;;;;;27.40;15.63;;;;;;;;;;5004847;28;20502;-70
2023/05/20 06:52:10;;;;;;;23.83;14.37;;;;;;;;;;5003544;28;20038;-71
2023/05/20 06:54:38;;;;;;;24.55;15.50;;;;;;;;;;5002662;28;20516;-71
2023/05/20 06:57:04;;;;;;;23.83;14.45;;;;;;;;;;5003148;28;20015;-71
2023/05/20 06:59:29;;;;;;;24.67;14.45;;;;;;;;;;5003474;28;20036;-71
2023/05/20 07:01:55;;;;;;;22.73;13.77;;;;;;;;;;5005525;28;20026;-71
2023/05/20 07:04:20;;;;;;;24.33;13.75;;;;;;;;;;5006410;28;20038;-71
2023/05/20 07:06:45;;;;;;;22.13;14.27;;;;;;;;;;5000962;28;20493;-72
2023/05/20 07:09:10;;;;;;;24.10;14.73;;;;;;;;;;5000308;28;20091;-71
2023/05/20 07:11:35;;;;;;;21.20;14.20;;;;;;;;;;5002185;28;20160;-70
2023/05/20 07:14:00;;;;;;;21.88;14.00;;;;;;;;;;5005848;28;20037;-70
2023/05/20 07:16:26;;;;;;;22.53;13.50;;;;;;;;;;5011979;28;20022;-71
2023/05/20 07:18:51;;;;;;;22.10;13.73;;;;;;;;;;4999268;28;20109;-71
2023/05/20 07:21:16;;;;;;;20.67;13.75;;;;;;;;;;4993079;28;20026;-70
2023/05/20 07:23:41;;;;;;;22.77;13.70;;;;;;;;;;4993059;28;20069;-70
2023/05/20 07:26:07;;;;;;;21.45;13.48;;;;;;;;;;5001993;28;20060;-69
2023/05/20 07:28:32;;;;;;;22.75;13.88;;;;;;;;;;4992308;28;20062;-69
2023/05/20 07:30:59;;;;;;;25.50;14.03;;;;;;;;;;4992503;28;20497;-71
2023/05/20 07:33:24;;;;;;;18.60;12.35;;;;;;;;;;4992173;28;20036;-71
2023/05/20 07:35:49;;;;;;;23.30;13.80;;;;;;;;;;4992434;28;20105;-71
2023/05/20 07:38:15;;;;;;;23.20;14.70;;;;;;;;;;4991768;28;20069;-71
2023/05/20 07:40:40;;;;;;;22.67;14.70;;;;;;;;;;4999901;28;20041;-71
2023/05/20 07:43:06;;;;;;;19.67;13.45;;;;;;;;;;4995811;28;20390;-70
2023/05/20 07:45:33;;;;;;;22.80;14.50;;;;;;;;;;4992494;28;20091;-69
2023/05/20 07:47:58;;;;;;;19.55;13.27;;;;;;;;;;4992214;28;20022;-69
2023/05/20 07:50:23;;;;;;;21.63;14.90;;;;;;;;;;4991773;28;20034;-69
2023/05/20 07:52:48;;;;;;;20.75;13.73;;;;;;;;;;4992010;28;20033;-70
2023/05/20 07:55:13;;;;;;;20.25;13.93;;;;;;;;;;4997585;28;20492;-71
2023/05/20 07:57:39;;;;;;;21.60;14.32;;;;;;;;;;5002408;28;20018;-70
2023/05/20 08:00:05;;;;;;;23.92;13.90;;;;;;;;;;4996029;28;20049;-70
2023/05/20 08:02:30;;;;;;;20.33;13.60;;;;;;;;;;4992077;28;20627;-70
2023/05/20 08:04:55;;;;;;;19.05;13.30;;;;;;;;;;4993485;28;20053;-69
2023/05/20 08:07:20;;;;;;;21.25;12.73;;;;;;;;;;5004206;28;20099;-69
2023/05/20 08:09:46;;;;;;;20.63;13.43;;;;;;;;;;5003066;28;20015;-69
2023/05/20 08:12:11;;;;;;;21.40;13.07;;;;;;;;;;4999722;28;20042;-69
2023/05/20 08:14:36;;;;;;;19.05;12.27;;;;;;;;;;4992100;28;20072;-71
2023/05/20 08:17:01;;;;;;;21.35;12.32;;;;;;;;;;4992353;28;20081;-71
2023/05/20 08:19:27;;;;;;;19.83;12.50;;;;;;;;;;4991325;28;20490;-71
2023/05/20 08:21:53;;;;;;;21.45;12.82;;;;;;;;;;4992741;28;20034;-71
2023/05/20 08:24:18;;;;;;;19.17;13.15;;;;;;;;;;4996407;28;20030;-71
2023/05/20 08:26:43;;;;;;;20.60;13.13;;;;;;;;;;4999852;28;20033;-71
2023/05/20 08:29:08;;;;;;;20.15;13.38;;;;;;;;;;4998802;28;20026;-71
2023/05/20 08:31:33;;;;;;;21.97;14.00;;;;;;;;;;5000568;28;20105;-71
2023/05/20 08:33:59;;;;;;;20.65;13.27;;;;;;;;;;4991764;28;20096;-71
2023/05/20 08:36:24;;;;;;;20.33;12.65;;;;;;;;;;4991723;28;20033;-69
2023/05/20 08:38:49;;;;;;;20.77;13.30;;;;;;;;;;4991157;28;20023;-69
2023/05/20 08:41:15;;;;;;;20.80;14.07;;;;;;;;;;4991774;28;20102;-70
2023/05/20 08:43:40;;;;;;;20.08;13.00;;;;;;;;;;4997446;28;20086;-69
2023/05/20 08:46:05;;;;;;;20.63;13.10;;;;;;;;;;4999345;28;20109;-71
2023/05/20 08:48:32;;;;;;;20.10;12.52;;;;;;;;;;4990631;28;20106;-70
2023/05/20 08:50:58;;;;;;;18.60;11.45;;;;;;;;;;4991363;28;20018;-69
2023/05/20 08:53:23;;;;;;;21.77;12.75;;;;;;;;;;4991218;28;20114;-70
2023/05/20 08:55:52;;;;;;;19.98;12.85;;;;;;;;;;4990790;28;20026;-69
2023/05/20 08:58:18;;;;;;;20.08;13.10;;;;;;;;;;4992434;28;20023;-69
2023/05/20 09:00:43;;;;;;;23.63;13.32;;;;;;;;;;4998445;28;20029;-70
2023/05/20 09:03:08;;;;;;;18.60;12.47;;;;;;;;;;4991151;28;20018;-69
2023/05/20 09:05:34;;;;;;;21.23;12.43;;;;;;;;;;5008544;28;20524;-71
2023/05/20 09:08:10;;;;;;;20.30;13.27;;;;;;;;;;5010698;28;20029;-71
2023/05/20 09:10:35;;;;;;;19.33;12.75;;;;;;;;;;5009098;28;20030;-71
2023/05/20 09:13:04;;;;;;;19.65;12.38;;;;;;;;;;4995831;28;20485;-69
2023/05/20 09:15:29;;;;;;;23.35;12.93;;;;;;;;;;5005660;28;20393;-69
2023/05/20 09:17:54;;;;;;;21.48;12.30;;;;;;;;;;5010868;28;20022;-69
2023/05/20 09:20:20;;;;;;;18.97;12.37;;;;;;;;;;5010002;28;20068;-71
2023/05/20 09:22:46;;;;;;;20.30;12.43;;;;;;;;;;5010458;28;20053;-70
2023/05/20 09:25:12;;;;;;;18.23;11.50;;;;;;;;;;5008775;28;20057;-70
2023/05/20 09:27:38;;;;;;;21.50;12.48;;;;;;;;;;4999475;28;20109;-69
2023/05/20 09:30:03;;;;;;;;;;;;;;;;;;4999157;28;20625;-69
2023/05/20 09:32:28;;;;;;;18.73;11.98;;;;;;;;;;4994273;28;20270;-69
2023/05/20 09:34:53;;;;;;;18.90;11.90;;;;;;;;;;4994433;28;20022;-69
2023/05/20 09:37:20;;;;;;;19.47;11.87;;;;;;;;;;4994486;28;20483;-69
2023/05/20 09:39:50;;;;;;;19.42;11.45;;;;;;;;;;4993648;28;20112;-70
2023/05/20 09:42:18;;;;;;;20.42;12.35;;;;;;;;;;4999647;28;20027;-69
2023/05/20 09:44:44;;;;;;;20.55;13.02;;;;;;;;;;5001736;28;20375;-69
2023/05/20 09:47:10;;;;;;;22.30;13.05;;;;;;;;;;4994209;28;20425;-70
2023/05/20 09:49:36;;;;;;;19.25;11.90;;;;;;;;;;4993771;28;20021;-69
2023/05/20 09:52:02;;;;;;;20.20;12.63;;;;;;;;;;4994132;28;20056;-69
2023/05/20 09:54:28;;;;;;;20.58;12.77;;;;;;;;;;4993899;28;20050;-70
2023/05/20 09:56:53;;;;;;;;;;;;;;;;;;5002565;28;20018;-70
2023/05/20 09:59:20;;;;;;;21.63;12.30;;;;;;;;;;5009045;28;19916;-69
2023/05/20 10:01:45;;;;;;;17.83;11.73;;;;;;;;;;5006618;28;20389;-70
2023/05/20 10:04:11;;;;;;;19.33;11.93;;;;;;;;;;4996381;28;20019;-70
2023/05/20 10:06:55;;;;;;;19.83;12.77;;;;;;;;;;4993961;28;20463;-71
2023/05/20 10:09:34;;;;;;;19.08;12.35;;;;;;;;;;4993452;28;20031;-69
2023/05/20 10:12:29;;;;;;;20.10;12.82;;;;;;;;;;5003995;28;20022;-70
2023/05/20 10:14:57;;;;;;;20.27;11.77;;;;;;;;;;4943896;28;20912;-71
2023/05/20 10:17:26;;;;;;;21.75;12.60;;;;;;;;;;5013553;28;20091;-70
2023/05/20 10:19:56;;;;;;;19.20;12.73;;;;;;;;;;5012914;28;20049;-71
2023/05/20 10:22:26;;;;;;;17.92;11.73;;;;;;;;;;5013706;28;20026;-71
2023/05/20 10:24:56;;;;;;;20.25;11.60;;;;;;;;;;5013259;28;20042;-68
2023/05/20 10:27:22;;;;;;;17.60;11.23;;;;;;;;;;5004048;28;20097;-69
2023/05/20 10:29:50;;;;;;;19.60;12.30;;;;;;;;;;4999074;28;20106;-69
2023/05/20 10:32:25;;;;;;;20.80;12.32;;;;;;;;;;4993288;28;20089;-69
2023/05/20 10:34:50;;;;;;;18.88;11.48;;;;;;;;;;4994268;28;20025;-70
2023/05/20 10:37:23;;;;;;;18.60;11.23;;;;;;;;;;4999896;28;20007;-69
2023/05/20 10:39:48;;;;;;;17.60;11.20;;;;;;;;;;4990708;28;20023;-69
2023/05/20 10:42:13;;;;;;;19.50;11.13;;;;;;;;;;4992907;28;20482;-70
2023/05/20 10:44:42;;;;;;;18.80;11.70;;;;;;;;;;4993607;28;20023;-69
2023/05/20 10:47:07;;;;;;;18.70;10.95;;;;;;;;;;4995571;28;20019;-70
2023/05/20 10:49:33;;;;;;;17.73;10.60;;;;;;;;;;4997626;28;20022;-70
2023/05/20 10:51:59;;;;;;;17.10;10.77;;;;;;;;;;5004505;28;20614;-70
2023/05/20 10:54:24;;;;;;;18.40;11.17;;;;;;;;;;5007234;28;20029;-71
2023/05/20 10:56:50;;;;;;;17.10;10.70;;;;;;;;;;5000110;28;20022;-73
2023/05/20 10:59:15;;;;;;;;;;;;;;;;;;4998119;28;20521;-70
2023/05/20 11:01:41;;;;;;;17.85;10.95;;;;;;;;;;4999382;28;19992;-70
2023/05/20 11:04:07;;;;;;;18.85;11.10;;;;;;;;;;5012534;28;20025;-69
2023/05/20 11:06:33;;;;;;;18.98;11.02;;;;;;;;;;5008930;28;20034;-69
2023/05/20 11:09:03;;;;;;;16.20;10.60;;;;;;;;;;5000181;28;20026;-69
2023/05/20 11:11:28;;;;;;;17.40;11.43;;;;;;;;;;4992408;28;20101;-69
2023/05/20 11:13:56;;;;;;;17.80;11.32;;;;;;;;;;4992611;28;20122;-70
2023/05/20 11:16:21;;;;;;;20.10;11.93;;;;;;;;;;4992873;28;20031;-70
2023/05/20 11:18:47;;;;;;;18.17;11.77;;;;;;;;;;4992016;28;20029;-70
2023/05/20 11:21:12;;;;;;;17.08;12.02;;;;;;;;;;4998215;28;20093;-70
2023/05/20 11:23:37;;;;;;;17.60;12.00;;;;;;;;;;4998104;28;20370;-70
2023/05/20 11:26:02;;;;;;;17.98;11.15;;;;;;;;;;5002738;28;20021;-70
2023/05/20 11:28:29;;;;;;;19.53;11.97;;;;;;;;;;5002882;28;20026;-70
2023/05/20 11:30:54;;;;;;;18.92;11.18;;;;;;;;;;5011473;28;20030;-70
2023/05/20 11:33:19;;;;;;;15.73;10.33;;;;;;;;;;5011918;28;20040;-70
2023/05/20 11:35:48;;;;;;;16.80;10.67;;;;;;;;;;5011663;28;20026;-69
2023/05/20 11:38:13;;;;;;;17.27;11.48;;;;;;;;;;5000102;28;20448;-70
2023/05/20 11:40:43;;;;;;;16.90;10.48;;;;;;;;;;5004625;28;20025;-69
2023/05/20 11:43:10;;;;;;;19.90;11.07;;;;;;;;;;5003054;28;20022;-69
2023/05/20 11:45:39;;;;;;;17.00;11.27;;;;;;;;;;5002898;28;20485;-69
2023/05/20 11:48:04;;;;;;;17.42;11.48;;;;;;;;;;5002494;28;20159;-70
2023/05/20 11:50:34;;;;;;;19.20;11.07;;;;;;;;;;4994986;28;20521;-68
2023/05/20 11:53:01;;;;;;;14.20;10.05;;;;;;;;;;4996478;28;20034;-69
2023/05/20 11:55:26;;;;;;;16.42;10.00;;;;;;;;;;4992980;28;20464;-68
2023/05/20 11:57:51;;;;;;;18.53;11.33;;;;;;;;;;4997788;28;20030;-68
2023/05/20 12:00:17;;;;;;;16.23;10.45;;;;;;;;;;4998047;28;20030;-69
2023/05/20 12:02:42;;;;;;;14.87;9.87;;;;;;;;;;4996780;28;20638;-68
2023/05/20 12:05:08;;;;;;;16.52;10.25;;;;;;;;;;4995460;28;20026;-68
2023/05/20 12:07:33;;;;;;;14.98;10.02;;;;;;;;;;4995793;28;20021;-70
2023/05/20 12:09:58;;;;;;;15.25;10.02;;;;;;;;;;5006966;28;20385;-71
2023/05/20 12:12:24;;;;;;;15.82;10.48;;;;;;;;;;5005051;28;20065;-68
2023/05/20 12:14:49;;;;;;;18.23;10.75;;;;;;;;;;5006440;28;20018;-71
2023/05/20 12:17:14;;;;;;;15.93;10.63;;;;;;;;;;4991202;28;20709;-71
2023/05/20 12:19:39;;;;;;;15.25;10.15;;;;;;;;;;4996374;28;20038;-71
2023/05/20 12:22:05;;;;;;;20.73;10.97;;;;;;;;;;5000882;28;20025;-71
2023/05/20 12:24:30;;;;;;;17.13;11.00;;;;;;;;;;5006252;28;20045;-71
2023/05/20 12:26:56;;;;;;;15.13;10.15;;;;;;;;;;5005568;28;20030;-69
2023/05/20 12:29:21;;;;;;;14.40;10.10;;;;;;;;;;4996003;28;20294;-68
2023/05/20 12:31:46;;;;;;;15.97;10.60;;;;;;;;;;5001744;28;20113;-69
2023/05/20 12:34:11;;;;;;;16.85;10.73;;;;;;;;;;4996240;28;20033;-69
2023/05/20 12:36:36;;;;;;;17.05;10.40;;;;;;;;;;5002470;28;20034;-69
2023/05/20 12:39:02;;;;;;;16.23;10.75;;;;;;;;;;5004104;28;20544;-68
2023/05/20 12:41:27;;;;;;;15.18;10.05;;;;;;;;;;4998525;28;20105;-69
2023/05/20 12:43:53;;;;;;;15.55;9.82;;;;;;;;;;5004222;28;20083;-69
2023/05/20 12:46:18;;;;;;;15.95;10.25;;;;;;;;;;5004092;28;20754;-69
2023/05/20 12:48:43;;;;;;;14.35;9.85;;;;;;;;;;4998838;28;20073;-69
2023/05/20 12:51:08;;;;;;;17.42;11.15;;;;;;;;;;5004425;28;20698;-69
2023/05/20 12:53:33;;;;;;;22.13;10.37;;;;;;;;;;4994968;28;20058;-69
2023/05/20 12:55:58;;;;;;;15.67;10.33;;;;;;;;;;4995622;28;20022;-69
2023/05/20 12:58:23;;;;;;;16.65;11.13;;;;;;;;;;4990648;28;20030;-69
2023/05/20 13:00:49;;;;;;;15.60;10.52;;;;;;;;;;4995255;28;20029;-69
2023/05/20 13:03:14;;;;;;;17.67;10.60;;;;;;;;;;5004270;28;20437;-70
2023/05/20 13:05:39;;;;;;;14.53;10.03;;;;;;;;;;5003469;28;20073;-70
2023/05/20 13:08:05;;;;;;;13.63;9.53;;;;;;;;;;5005514;28;21066;-70
2023/05/20 13:10:30;;;;;;;15.73;10.48;;;;;;;;;;5005362;28;20040;-73
2023/05/20 13:12:55;;;;;;;15.80;10.33;;;;;;;;;;5008730;28;20576;-69
2023/05/20 13:15:20;;;;;;;15.23;10.77;;;;;;;;;;5010578;28;20100;-71
2023/05/20 13:17:45;;;;;;;15.02;10.38;;;;;;;;;;5004646;28;20448;-69
2023/05/20 13:20:11;;;;;;;17.47;10.67;;;;;;;;;;5005510;28;20022;-70
2023/05/20 13:22:37;;;;;;;23.15;9.77;;;;;;;;;;5006195;28;20109;-64
2023/05/20 13:25:03;;;;;;;14.37;9.60;;;;;;;;;;5005717;28;20362;-57
2023/05/20 13:27:28;;;;;;;;;;;;;;;;;;5003624;28;20032;-65
2023/05/20 13:29:53;;;;;;;14.55;9.60;;;;;;;;;;5006432;28;19909;-65
2023/05/20 13:32:18;;;;;;;13.97;9.23;;;;;;;;;;5009165;28;20025;-64
2023/05/20 13:34:43;;;;;;;13.48;8.98;;;;;;;;;;5007793;28;20455;-64
2023/05/20 13:37:08;;;;;;;15.47;9.83;;;;;;;;;;5012288;28;20029;-63
2023/05/20 13:39:34;;;;;;;15.43;9.48;;;;;;;;;;5009936;28;20516;-63
2023/05/20 13:41:59;;;;;;;16.63;8.98;;;;;;;;;;5003581;28;20022;-64
2023/05/20 13:44:24;;;;;;;15.87;9.07;;;;;;;;;;5010668;28;20420;-66
2023/05/20 13:46:49;;;;;;;15.32;8.95;;;;;;;;;;5009963;28;20033;-67
2023/05/20 13:49:14;;;;;;;13.70;8.88;;;;;;;;;;5008971;28;20022;-68
2023/05/20 13:51:40;;;;;;;14.03;8.97;;;;;;;;;;5006821;28;20030;-67
2023/05/20 13:54:05;;;;;;;18.40;9.17;;;;;;;;;;5000599;28;20486;-67
2023/05/20 13:56:30;;;;;;;14.18;8.88;;;;;;;;;;5006225;28;20025;-68
2023/05/20 13:58:56;;;;;;;13.65;9.00;;;;;;;;;;5001473;28;20022;-66
2023/05/20 14:01:21;;;;;;;13.97;9.17;;;;;;;;;;5007037;28;20029;-67
2023/05/20 14:03:46;;;;;;;13.03;9.10;;;;;;;;;;4996892;28;20018;-66
2023/05/20 14:06:13;;;;;;;14.98;9.63;;;;;;;;;;4998395;28;20401;-67
2023/05/20 14:08:38;;;;;;;16.77;9.77;;;;;;;;;;5009331;28;20025;-68
2023/05/20 14:11:04;;;;;;;14.75;9.25;;;;;;;;;;5009795;28;20017;-67
2023/05/20 14:13:29;;;;;;;15.07;9.88;;;;;;;;;;5009229;28;20121;-67